createdAt,value
2022-11-04T00:02:20.306Z,73.68
2022-11-04T00:05:05.469Z,73.18
2022-11-04T00:07:50.219Z,72.06
2022-11-04T00:10:34.993Z,72.75
2022-11-04T00:13:19.678Z,73.60
2022-11-04T00:16:04.379Z,73.24
2022-11-04T00:18:49.123Z,73.78
2022-11-04T00:21:33.817Z,74.39
2022-11-04T00:24:18.646Z,75.23
2022-11-04T00:27:03.477Z,75.36
2022-11-04T00:29:48.316Z,75.75
2022-11-04T00:32:32.979Z,74.05
2022-11-04T00:35:17.830Z,72.53
2022-11-04T00:38:02.623Z,72.80
2022-11-04T00:40:47.469Z,72.24
2022-11-04T00:43:32.246Z,71.24
2022-11-04T00:46:17.095Z,68.17
2022-11-04T00:49:01.828Z,69.41
2022-11-04T00:51:46.588Z,70.42
2022-11-04T00:54:31.399Z,69.58
2022-11-04T00:57:16.146Z,69.87
2022-11-04T01:00:00.971Z,69.50
2022-11-04T01:02:45.777Z,70.56
2022-11-04T01:05:30.431Z,70.36
2022-11-04T01:08:15.431Z,68.65
2022-11-04T01:10:59.985Z,68.53
2022-11-04T01:13:44.835Z,67.96
2022-11-04T01:16:29.728Z,67.92
2022-11-04T01:19:14.747Z,68.21
2022-11-04T01:21:59.491Z,69.71
2022-11-04T01:24:44.249Z,69.13
2022-11-04T01:27:28.871Z,69.66
2022-11-04T01:30:13.669Z,69.71
2022-11-04T01:32:58.335Z,68.72
2022-11-04T01:35:43.203Z,69.39
2022-11-04T01:38:28.032Z,70.60
2022-11-04T01:41:12.737Z,70.25
2022-11-04T01:43:57.445Z,70.75
2022-11-04T01:46:42.150Z,71.72
2022-11-04T01:49:26.922Z,71.36
2022-11-04T01:52:11.548Z,71.32
2022-11-04T01:54:56.407Z,70.23
2022-11-04T01:57:41.122Z,69.42
2022-11-04T02:00:25.991Z,68.77
2022-11-04T02:03:11.083Z,68.24
2022-11-04T02:05:55.845Z,67.90
2022-11-04T02:08:40.567Z,68.68
2022-11-04T02:11:25.309Z,69.86
2022-11-04T02:14:10.232Z,70.41
2022-11-04T02:16:54.996Z,69.68
2022-11-04T02:19:39.806Z,68.97
2022-11-04T02:22:24.436Z,67.74
2022-11-04T02:25:09.233Z,67.96
2022-11-04T02:27:53.982Z,66.73
2022-11-04T02:30:38.876Z,67.76
2022-11-04T02:33:23.518Z,68.12
2022-11-04T02:36:08.412Z,68.65
2022-11-04T02:38:53.144Z,70.15
2022-11-04T02:41:37.866Z,69.58
2022-11-04T02:44:22.526Z,70.35
2022-11-04T02:47:07.281Z,70.21
2022-11-04T02:49:52.121Z,69.56
2022-11-04T02:52:36.816Z,68.35
2022-11-04T02:55:21.599Z,69.71
2022-11-04T02:58:06.324Z,70.63
2022-11-04T03:00:51.142Z,71.96
2022-11-04T03:03:36.342Z,72.04
2022-11-04T03:06:21.211Z,72.28
2022-11-04T03:09:05.962Z,72.16
2022-11-04T03:11:50.713Z,72.02
2022-11-04T03:14:35.605Z,70.89
2022-11-04T03:17:20.372Z,70.90
2022-11-04T03:20:05.242Z,71.06
2022-11-04T03:22:49.916Z,69.78
2022-11-04T03:25:34.831Z,70.14
2022-11-04T03:28:19.548Z,70.17
2022-11-04T03:31:04.204Z,70.50
2022-11-04T03:33:48.854Z,70.75
2022-11-04T03:36:33.585Z,69.91
2022-11-04T03:39:18.309Z,69.94
2022-11-04T03:42:03.082Z,69.81
2022-11-04T03:44:47.830Z,69.70
2022-11-04T03:47:32.531Z,69.88
2022-11-04T03:50:17.285Z,68.77
2022-11-04T03:53:01.954Z,68.90
2022-11-04T03:55:46.709Z,67.64
2022-11-04T03:58:31.396Z,67.73
2022-11-04T04:01:16.336Z,68.29
2022-11-04T04:04:01.505Z,68.75
2022-11-04T04:06:46.259Z,69.03
2022-11-04T04:09:30.971Z,68.29
2022-11-04T04:12:15.685Z,68.52
2022-11-04T04:15:00.552Z,67.80
2022-11-04T04:17:45.184Z,68.70
2022-11-04T04:20:30.013Z,69.26
2022-11-04T04:23:14.678Z,69.82
2022-11-04T04:25:59.369Z,69.84
2022-11-04T04:28:44.024Z,70.43
2022-11-04T04:31:28.765Z,70.09
2022-11-04T04:34:13.435Z,69.08
2022-11-04T04:36:58.211Z,68.34
2022-11-04T04:39:42.908Z,67.98
2022-11-04T04:42:27.609Z,67.47
2022-11-04T04:45:12.519Z,67.54
2022-11-04T04:47:57.124Z,67.30
2022-11-04T04:50:41.973Z,67.58
2022-11-04T04:53:26.628Z,67.33
2022-11-04T04:56:11.400Z,66.94
2022-11-04T04:58:56.088Z,66.36
2022-11-04T05:01:41.087Z,65.98
2022-11-04T05:04:26.200Z,65.95
2022-11-04T05:07:10.919Z,65.38
2022-11-04T05:09:55.563Z,65.78
2022-11-04T05:12:40.428Z,65.16
2022-11-04T05:15:25.269Z,65.20
2022-11-04T05:18:10.295Z,66.58
2022-11-04T05:20:55.268Z,66.79
2022-11-04T05:23:40.061Z,66.24
2022-11-04T05:26:25.392Z,65.68
2022-11-04T05:29:10.101Z,66.55
2022-11-04T05:31:54.881Z,66.86
2022-11-04T05:34:39.505Z,65.62
2022-11-04T05:37:24.352Z,64.98
2022-11-04T05:40:09.076Z,65.56
2022-11-04T05:42:53.775Z,65.36
2022-11-04T05:45:38.615Z,65.87
2022-11-04T05:48:23.234Z,66.13
2022-11-04T05:51:07.997Z,65.99
2022-11-04T05:53:52.641Z,65.27
2022-11-04T05:56:37.623Z,64.90
2022-11-04T05:59:22.269Z,64.01
2022-11-04T06:02:07.130Z,63.43
2022-11-04T06:04:52.200Z,62.79
2022-11-04T06:07:37.051Z,62.69
2022-11-04T06:10:21.950Z,63.06
2022-11-04T06:13:06.580Z,62.80
2022-11-04T06:15:51.505Z,62.92
2022-11-04T06:18:36.145Z,62.21
2022-11-04T06:21:20.968Z,63.28
2022-11-04T06:24:05.588Z,63.36
2022-11-04T06:26:50.353Z,62.84
2022-11-04T06:29:35.085Z,62.93
2022-11-04T06:32:19.827Z,62.92
2022-11-04T06:35:04.519Z,62.48
2022-11-04T06:37:49.353Z,61.96
2022-11-04T06:40:34.095Z,62.71
2022-11-04T06:43:18.835Z,63.03
2022-11-04T06:46:03.844Z,63.22
2022-11-04T06:48:48.561Z,63.41
2022-11-04T06:51:33.325Z,62.91
2022-11-04T06:54:18.047Z,61.57
2022-11-04T06:57:02.823Z,63.00
2022-11-04T06:59:47.532Z,62.71
2022-11-04T07:02:32.344Z,62.21
2022-11-04T07:05:17.484Z,61.85
2022-11-04T07:08:02.263Z,60.75
2022-11-04T07:10:47.041Z,61.55
2022-11-04T07:13:31.712Z,61.22
2022-11-04T07:16:16.587Z,58.99
2022-11-04T07:19:01.315Z,59.54
2022-11-04T07:21:46.292Z,60.32
2022-11-04T07:24:31.025Z,60.80
2022-11-04T07:27:15.965Z,61.33
2022-11-04T07:30:00.614Z,62.05
2022-11-04T07:32:45.410Z,61.81
2022-11-04T07:35:30.311Z,59.32
2022-11-04T07:38:15.150Z,58.86
2022-11-04T07:41:00.169Z,62.46
2022-11-04T07:43:44.925Z,62.70
2022-11-04T07:46:29.692Z,63.17
2022-11-04T07:49:14.427Z,63.13
2022-11-04T07:51:59.191Z,62.23
2022-11-04T07:54:43.913Z,61.23
2022-11-04T07:57:28.861Z,60.74
2022-11-04T08:00:13.584Z,60.69
2022-11-04T08:02:58.474Z,60.06
2022-11-04T08:05:43.215Z,58.65
2022-11-04T08:08:28.044Z,59.58
2022-11-04T08:11:17.138Z,63.34
2022-11-04T08:14:02.491Z,64.52
2022-11-04T08:16:47.115Z,63.83
2022-11-04T08:19:31.889Z,63.93
2022-11-04T08:22:16.507Z,64.34
2022-11-04T08:25:01.450Z,64.74
2022-11-04T08:27:46.111Z,64.05
2022-11-04T08:30:31.004Z,63.92
2022-11-04T08:33:15.760Z,64.34
2022-11-04T08:36:00.614Z,64.99
2022-11-04T08:38:45.281Z,63.87
2022-11-04T08:41:30.117Z,63.17
2022-11-04T08:44:14.852Z,62.22
2022-11-04T08:46:59.716Z,61.37
2022-11-04T08:49:44.539Z,60.96
2022-11-04T08:52:29.406Z,59.68
2022-11-04T08:55:14.183Z,59.49
2022-11-04T08:57:58.961Z,59.98
2022-11-04T09:00:43.893Z,59.25
2022-11-04T09:03:28.662Z,57.62
2022-11-04T09:06:13.342Z,57.45
2022-11-04T09:08:58.167Z,57.48
2022-11-04T09:11:42.971Z,59.68
2022-11-04T09:14:27.680Z,57.97
2022-11-04T09:17:12.495Z,57.74
2022-11-04T09:19:57.351Z,57.12
2022-11-04T09:22:45.794Z,56.33
2022-11-04T09:25:31.027Z,54.83
2022-11-04T09:28:15.729Z,55.62
2022-11-04T09:31:00.444Z,61.46
2022-11-04T09:33:45.221Z,61.32
2022-11-04T09:36:29.964Z,61.53
2022-11-04T09:39:14.720Z,61.17
2022-11-04T09:41:59.418Z,61.93
2022-11-04T09:45:07.302Z,61.72
2022-11-04T09:47:49.230Z,56.45
2022-11-04T09:50:33.996Z,54.41
2022-11-04T09:53:18.919Z,58.80
2022-11-04T09:56:03.643Z,61.19
2022-11-04T09:58:48.530Z,59.61
2022-11-04T10:01:33.259Z,58.67
2022-11-04T10:04:18.409Z,57.07
2022-11-04T10:07:03.072Z,57.32
2022-11-04T10:09:47.719Z,58.79
2022-11-04T10:12:32.326Z,57.68
2022-11-04T10:15:18.006Z,58.53
2022-11-04T10:18:02.795Z,57.18
2022-11-04T10:20:47.511Z,56.81
2022-11-04T10:23:32.252Z,58.58
2022-11-04T10:26:16.957Z,59.33
2022-11-04T10:29:01.848Z,59.21
2022-11-04T10:31:46.550Z,60.66
2022-11-04T10:34:31.327Z,61.74
2022-11-04T10:37:16.196Z,62.00
2022-11-04T10:40:00.904Z,62.45
2022-11-04T10:42:45.842Z,61.88
2022-11-04T10:45:30.492Z,61.51
2022-11-04T10:48:15.251Z,62.95
2022-11-04T10:50:59.866Z,63.36
2022-11-04T10:53:44.788Z,61.49
2022-11-04T10:56:29.445Z,61.58
2022-11-04T10:59:19.905Z,59.98
2022-11-04T11:02:05.298Z,60.57
2022-11-04T11:04:49.939Z,59.34
2022-11-04T11:07:34.669Z,57.14
2022-11-04T11:10:19.405Z,58.15
2022-11-04T11:13:04.264Z,56.82
2022-11-04T11:15:48.960Z,57.58
2022-11-04T11:18:33.763Z,57.56
2022-11-04T11:21:18.476Z,58.95
2022-11-04T11:24:03.250Z,60.25
2022-11-04T11:26:48.094Z,61.82
2022-11-04T11:29:32.704Z,62.46
2022-11-04T11:32:17.501Z,62.72
2022-11-04T11:35:04.354Z,61.78
2022-11-04T11:37:51.423Z,61.63
2022-11-04T11:40:36.265Z,59.16
2022-11-04T11:43:21.165Z,59.63
2022-11-04T11:46:05.963Z,59.20
2022-11-04T11:48:50.670Z,56.57
2022-11-04T11:51:35.323Z,56.65
2022-11-04T11:54:20.177Z,56.27
2022-11-04T11:57:13.728Z,56.14
2022-11-04T12:03:03.880Z,53.56
2022-11-04T12:11:58.785Z,54.05
2022-11-04T12:14:48.546Z,53.28
2022-11-04T12:17:34.086Z,54.77
2022-11-04T12:20:18.715Z,55.33
2022-11-04T12:23:03.551Z,55.40
2022-11-04T12:25:48.346Z,54.57
2022-11-04T12:28:33.363Z,58.37
2022-11-04T12:31:18.068Z,56.07
2022-11-04T12:34:02.917Z,56.85
2022-11-04T12:36:47.564Z,55.90
2022-11-04T12:39:32.386Z,54.18
2022-11-04T12:42:21.910Z,53.54
2022-11-04T12:45:07.721Z,52.59
2022-11-04T12:47:52.586Z,52.82
2022-11-04T12:50:37.264Z,52.96
2022-11-04T12:53:21.906Z,53.23
2022-11-04T12:56:06.824Z,50.90
2022-11-04T12:58:51.562Z,51.85
2022-11-04T13:01:36.518Z,51.95
2022-11-04T13:04:21.607Z,50.80
2022-11-04T13:07:06.351Z,52.39
2022-11-04T13:09:51.129Z,51.49
2022-11-04T13:12:36.032Z,52.71
2022-11-04T13:15:20.795Z,52.47
2022-11-04T13:18:05.576Z,53.15
2022-11-04T13:20:50.329Z,53.38
2022-11-04T13:23:35.095Z,55.71
2022-11-04T13:26:19.869Z,54.02
2022-11-04T13:29:08.840Z,55.85
2022-11-04T13:31:53.894Z,55.89
2022-11-04T13:34:38.585Z,56.85
2022-11-04T13:37:23.242Z,54.15
2022-11-04T13:40:08.284Z,58.08
2022-11-04T13:42:52.875Z,58.01
2022-11-04T13:45:37.672Z,59.74
2022-11-04T13:48:22.308Z,60.74
2022-11-04T13:51:07.118Z,63.17
2022-11-04T13:53:51.861Z,62.56
2022-11-04T13:56:36.759Z,61.12
2022-11-04T13:59:21.609Z,62.12
2022-11-04T14:02:07.031Z,62.06
2022-11-04T14:04:52.232Z,63.17
2022-11-04T14:07:36.772Z,62.53
2022-11-04T14:10:21.565Z,61.42
2022-11-04T14:13:06.495Z,63.11
2022-11-04T14:15:51.568Z,63.44
2022-11-04T14:18:36.221Z,63.83
2022-11-04T14:21:21.147Z,64.04
2022-11-04T14:24:05.856Z,64.38
2022-11-04T14:26:50.693Z,62.69
2022-11-04T14:29:35.499Z,59.29
2022-11-04T14:32:20.185Z,61.14
2022-11-04T14:35:04.886Z,63.51
2022-11-04T14:37:53.262Z,62.46
2022-11-04T14:40:40.459Z,60.59
2022-11-04T14:43:25.228Z,61.28
2022-11-04T14:46:09.882Z,61.39
2022-11-04T14:48:54.771Z,60.32
2022-11-04T14:51:39.362Z,60.78
2022-11-04T14:54:24.180Z,61.18
2022-11-04T14:57:08.900Z,59.85
2022-11-04T14:59:53.664Z,60.88
2022-11-04T15:02:38.349Z,61.03
2022-11-04T15:05:23.100Z,60.81
2022-11-04T15:08:07.896Z,61.00
2022-11-04T15:10:52.608Z,61.92
2022-11-04T15:13:37.438Z,63.83
2022-11-04T15:16:22.232Z,65.23
2022-11-04T15:19:06.960Z,65.64
2022-11-04T15:21:51.728Z,67.52
2022-11-04T15:24:36.465Z,67.55
2022-11-04T15:27:21.129Z,66.77
2022-11-04T15:30:05.928Z,67.39
2022-11-04T15:32:50.673Z,65.99
2022-11-04T15:35:35.415Z,65.83
2022-11-04T15:38:20.191Z,65.86
2022-11-04T15:41:04.979Z,65.69
2022-11-04T15:43:49.864Z,66.04
2022-11-04T15:46:34.582Z,66.19
2022-11-04T15:49:19.427Z,65.22
2022-11-04T15:52:04.127Z,65.17
2022-11-04T15:54:48.789Z,64.93
2022-11-04T15:57:33.502Z,64.75
2022-11-04T16:00:18.265Z,63.05
2022-11-04T16:03:03.007Z,64.13
2022-11-04T16:05:47.741Z,64.68
2022-11-04T16:08:32.523Z,63.30
2022-11-04T16:11:17.526Z,64.64
2022-11-04T16:14:02.617Z,64.88
2022-11-04T16:16:47.469Z,64.06
2022-11-04T16:19:32.272Z,63.19
2022-11-04T16:22:17.006Z,62.75
2022-11-04T16:25:01.861Z,62.20
2022-11-04T16:27:46.477Z,61.66
2022-11-04T16:30:31.351Z,62.51
2022-11-04T16:33:16.024Z,62.65
2022-11-04T16:36:00.780Z,61.95
2022-11-04T16:38:45.571Z,61.96
2022-11-04T16:41:30.396Z,61.90
2022-11-04T16:44:15.274Z,61.86
2022-11-04T16:46:59.992Z,61.08
2022-11-04T16:49:44.735Z,61.46
2022-11-04T16:52:29.471Z,63.21
2022-11-04T16:55:14.225Z,62.82
2022-11-04T16:57:59.011Z,62.59
2022-11-04T17:00:43.812Z,62.53
2022-11-04T17:03:28.949Z,59.76
2022-11-04T17:06:13.713Z,59.68
2022-11-04T17:08:58.653Z,60.29
2022-11-04T17:11:43.382Z,59.57
2022-11-04T17:14:28.165Z,61.02
2022-11-04T17:17:12.860Z,59.90
2022-11-04T17:19:57.895Z,60.45
2022-11-04T17:22:42.649Z,62.21
2022-11-04T17:25:27.362Z,61.67
2022-11-04T17:28:12.088Z,61.42
2022-11-04T17:30:56.853Z,62.40
2022-11-04T17:33:41.670Z,63.22
2022-11-04T17:36:26.504Z,61.79
2022-11-04T17:39:11.255Z,62.54
2022-11-04T17:41:56.081Z,64.15
2022-11-04T17:44:40.964Z,61.43
2022-11-04T17:47:25.663Z,62.69
2022-11-04T17:50:10.451Z,65.51
2022-11-04T17:52:55.163Z,65.37
2022-11-04T17:55:39.914Z,66.25
2022-11-04T17:58:24.657Z,67.14
2022-11-04T18:01:09.547Z,67.41
2022-11-04T18:03:54.340Z,67.36
2022-11-04T18:06:39.774Z,67.75
2022-11-04T18:09:24.832Z,67.08
2022-11-04T18:12:09.677Z,66.47
2022-11-04T18:14:54.460Z,66.23
2022-11-04T18:17:39.114Z,66.09
2022-11-04T18:20:24.000Z,66.30
2022-11-04T18:23:09.206Z,66.43
2022-11-04T18:25:54.099Z,67.07
2022-11-04T18:28:38.856Z,67.19
2022-11-04T18:31:23.598Z,67.41
2022-11-04T18:34:08.529Z,67.68
2022-11-04T18:36:53.115Z,66.85
2022-11-04T18:39:38.008Z,67.20
2022-11-04T18:42:22.879Z,67.47
2022-11-04T18:45:07.674Z,66.61
2022-11-04T18:47:52.524Z,66.39
2022-11-04T18:50:37.321Z,65.90
2022-11-04T18:53:26.844Z,66.59
2022-11-04T18:56:12.242Z,66.84
2022-11-04T18:58:57.139Z,66.20
2022-11-04T19:01:41.882Z,67.22
2022-11-04T19:04:26.891Z,66.29
2022-11-04T19:07:11.663Z,65.87
2022-11-04T19:09:56.380Z,65.43
2022-11-04T19:12:41.080Z,65.74
2022-11-04T19:15:25.843Z,65.59
2022-11-04T19:18:11.051Z,64.98
2022-11-04T19:20:56.447Z,64.65
2022-11-04T19:23:41.213Z,64.72
2022-11-04T19:26:25.952Z,64.21
2022-11-04T19:29:10.702Z,65.02
2022-11-04T19:31:55.335Z,65.10
2022-11-04T19:34:40.061Z,66.12
2022-11-04T19:37:24.880Z,66.62
2022-11-04T19:40:09.637Z,66.78
2022-11-04T19:42:54.456Z,65.63
2022-11-04T19:45:39.058Z,65.37
2022-11-04T19:48:23.886Z,64.87
2022-11-04T19:51:08.719Z,65.07
2022-11-04T19:53:53.612Z,64.64
2022-11-04T19:56:38.777Z,64.55
2022-11-04T19:59:23.466Z,64.25
2022-11-04T20:02:08.451Z,64.29
2022-11-04T20:04:53.601Z,64.46
2022-11-04T20:07:38.465Z,65.02
2022-11-04T20:10:23.125Z,65.27
2022-11-04T20:13:08.087Z,64.94
2022-11-04T20:15:52.858Z,64.74
2022-11-04T20:18:37.647Z,64.69
2022-11-04T20:21:22.392Z,65.59
2022-11-04T20:24:07.378Z,65.67
2022-11-04T20:26:52.210Z,65.87
2022-11-04T20:29:36.996Z,65.57
2022-11-04T20:32:21.841Z,66.64
2022-11-04T20:35:06.599Z,66.76
2022-11-04T20:37:51.500Z,67.38
2022-11-04T20:40:36.245Z,67.20
2022-11-04T20:43:21.009Z,66.73
2022-11-04T20:46:05.768Z,67.19
2022-11-04T20:48:50.504Z,66.01
2022-11-04T20:51:35.150Z,66.37
2022-11-04T20:54:19.956Z,66.11
2022-11-04T20:57:04.792Z,64.62
2022-11-04T20:59:49.828Z,64.86
2022-11-04T21:02:34.683Z,64.63
2022-11-04T21:05:19.883Z,64.39
2022-11-04T21:08:04.632Z,64.65
2022-11-04T21:10:49.303Z,64.52
2022-11-04T21:13:34.215Z,64.65
2022-11-04T21:16:19.350Z,64.16
2022-11-04T21:19:04.211Z,65.17
2022-11-04T21:21:48.818Z,65.43
2022-11-04T21:24:38.836Z,65.25
2022-11-04T21:27:24.114Z,64.83
2022-11-04T21:30:08.796Z,65.44
2022-11-04T21:32:53.497Z,65.52
2022-11-04T21:35:38.465Z,65.51
2022-11-04T21:38:23.168Z,65.89
2022-11-04T21:41:08.032Z,66.19
2022-11-04T21:43:52.610Z,66.84
2022-11-04T21:46:37.332Z,66.29
2022-11-04T21:49:22.013Z,66.13
2022-11-04T21:52:06.923Z,65.92
2022-11-04T21:54:51.681Z,66.51
2022-11-04T21:57:36.530Z,67.11
2022-11-04T22:00:21.323Z,67.57
2022-11-04T22:03:06.244Z,66.03
2022-11-04T22:05:51.402Z,66.48
2022-11-04T22:08:36.095Z,67.03
2022-11-04T22:11:21.010Z,68.07
2022-11-04T22:14:05.807Z,67.53
2022-11-04T22:16:50.601Z,66.40
2022-11-04T22:19:35.348Z,65.36
2022-11-04T22:22:20.112Z,65.33
2022-11-04T22:25:04.799Z,64.76
2022-11-04T22:27:49.499Z,63.94
2022-11-04T22:30:34.233Z,63.52
2022-11-04T22:33:18.727Z,63.11
2022-11-04T22:36:03.634Z,64.15
2022-11-04T22:38:48.339Z,64.06
2022-11-04T22:41:33.275Z,63.45
2022-11-04T22:44:18.086Z,64.09
2022-11-04T22:47:02.814Z,64.58
2022-11-04T22:49:47.572Z,64.36
2022-11-04T22:52:32.393Z,64.33
2022-11-04T22:55:17.066Z,64.12
2022-11-04T22:58:01.980Z,64.25
2022-11-04T23:00:47.066Z,65.58
2022-11-04T23:03:32.208Z,64.64
2022-11-04T23:06:17.395Z,64.72
2022-11-04T23:09:02.229Z,63.73
2022-11-04T23:11:47.033Z,63.63
2022-11-04T23:14:31.733Z,62.35
2022-11-04T23:17:16.511Z,62.14
2022-11-04T23:20:01.293Z,62.80
2022-11-04T23:22:46.214Z,63.61
2022-11-04T23:25:31.020Z,64.46
2022-11-04T23:28:15.721Z,64.54
2022-11-04T23:31:00.567Z,64.82
2022-11-04T23:33:45.274Z,63.74
2022-11-04T23:36:30.001Z,63.25
2022-11-04T23:39:14.811Z,62.61
2022-11-04T23:41:59.564Z,63.25
2022-11-04T23:44:44.350Z,63.66
2022-11-04T23:47:29.239Z,62.92
2022-11-04T23:50:13.876Z,62.91
2022-11-04T23:52:58.689Z,63.37
2022-11-04T23:55:43.505Z,63.18
2022-11-04T23:58:28.431Z,62.37
